Time;durP1;ratioP1;P1;durP2;ratioP2;P2;SDS_P1;SDS_P2;PMS_P1;PMS_P2;Temp;Humidity;BMP_temperature;BMP_pressure;BME280_temperature;BME280_humidity;BME280_pressure;Samples;Min_cycle;Max_cycle;Signal;HPM_P1;HPM_P2
2022/08/15 00:02:57;;;;;;;7.00;6.50;;;23.10;99.90;;;;;;6229048;28;87933;-64
2022/08/15 00:06:04;;;;;;;7.78;7.07;;;23.10;99.90;;;;;;6231132;28;88304;-64
2022/08/15 00:09:11;;;;;;;7.68;7.07;;;23.10;99.90;;;;;;6224880;28;87957;-64
2022/08/15 00:12:13;;;;;;;8.20;7.47;;;23.20;99.90;;;;;;6233417;28;89037;-64
2022/08/15 00:15:18;;;;;;;7.47;6.88;;;23.10;99.90;;;;;;6231255;28;90010;-64
2022/08/15 00:18:20;;;;;;;8.43;7.63;;;23.10;99.90;;;;;;6228593;28;88278;-63
2022/08/15 00:21:24;;;;;;;7.85;7.15;;;23.10;99.90;;;;;;6231848;28;89288;-64
2022/08/15 00:24:28;;;;;;;7.72;7.05;;;23.10;99.90;;;;;;6225816;28;87857;-64
2022/08/15 00:27:31;;;;;;;8.20;7.50;;;23.10;99.90;;;;;;6233157;28;89051;-63
2022/08/15 00:30:33;;;;;;;7.93;7.22;;;23.10;99.90;;;;;;6233713;28;89147;-64
2022/08/15 00:33:35;;;;;;;8.30;7.60;;;23.10;99.90;;;;;;6233363;28;89040;-63
2022/08/15 00:36:39;;;;;;;8.27;7.57;;;23.10;99.90;;;;;;6223852;28;88717;-63
2022/08/15 00:39:41;;;;;;;7.95;7.25;;;23.10;99.90;;;;;;6234422;28;89098;-64
2022/08/15 00:42:43;;;;;;;7.35;6.75;;;23.10;99.90;;;;;;6229602;28;88966;-63
2022/08/15 00:45:45;;;;;;;7.57;6.88;;;23.10;99.90;;;;;;6238303;27;89970;-63
2022/08/15 00:48:47;;;;;;;7.82;7.13;;;23.10;99.90;;;;;;6233074;28;89324;-63
2022/08/15 00:51:53;;;;;;;7.63;6.93;;;23.00;99.90;;;;;;6233039;28;89369;-63
2022/08/15 00:55:00;;;;;;;7.97;7.28;;;23.10;99.90;;;;;;6224876;28;89066;-63
2022/08/15 00:58:04;;;;;;;7.65;6.85;;;23.10;99.90;;;;;;6222692;28;89112;-64
2022/08/15 01:01:08;;;;;;;8.38;7.68;;;23.10;99.90;;;;;;6230588;28;89395;-63
2022/08/15 01:04:12;;;;;;;8.20;7.50;;;23.10;99.90;;;;;;6238780;28;89024;-63
2022/08/15 01:07:16;;;;;;;9.43;7.90;;;23.10;99.90;;;;;;6233348;28;88559;-63
2022/08/15 01:10:18;;;;;;;8.45;7.75;;;23.00;99.90;;;;;;6227320;28;88646;-63
2022/08/15 01:13:20;;;;;;;7.90;7.20;;;23.00;99.90;;;;;;6223821;28;89413;-64
2022/08/15 01:16:23;;;;;;;8.48;7.57;;;23.00;99.90;;;;;;6222197;28;90986;-63
2022/08/15 01:19:29;;;;;;;8.23;7.43;;;23.00;99.90;;;;;;6232530;28;89062;-64
2022/08/15 01:22:56;;;;;;;8.52;7.78;;;23.00;99.90;;;;;;6231986;28;89111;-63
2022/08/15 01:26:03;;;;;;;8.18;7.38;;;23.00;99.90;;;;;;6226174;28;88032;-64
2022/08/15 01:29:05;;;;;;;8.23;7.53;;;23.00;99.90;;;;;;6220825;28;89052;-63
2022/08/15 01:32:07;;;;;;;8.73;7.90;;;23.00;99.90;;;;;;6231910;28;89124;-63
2022/08/15 01:35:11;;;;;;;7.82;7.13;;;23.00;99.90;;;;;;6232848;28;89349;-63
2022/08/15 01:38:22;;;;;;;7.93;7.22;;;23.00;99.90;;;;;;6238841;28;88366;-63
2022/08/15 01:41:32;;;;;;;8.02;7.22;;;23.00;99.90;;;;;;6225974;28;89387;-64
2022/08/15 01:44:39;;;;;;;7.38;6.78;;;23.00;99.90;;;;;;6215153;28;88042;-63
2022/08/15 01:47:49;;;;;;;7.85;7.10;;;23.00;99.90;;;;;;6228910;28;92611;-64
2022/08/15 01:50:56;;;;;;;8.27;7.57;;;23.00;99.90;;;;;;6231606;28;89105;-63
2022/08/15 01:54:04;;;;;;;8.07;7.40;;;23.00;99.90;;;;;;6232384;28;89087;-63
2022/08/15 01:57:09;;;;;;;8.70;7.90;;;23.00;99.90;;;;;;6231779;28;89082;-63
2022/08/15 02:00:12;;;;;;;8.43;7.63;;;23.00;99.90;;;;;;6208745;28;89320;-63
2022/08/15 02:03:14;;;;;;;8.02;7.32;;;23.00;99.90;;;;;;6231705;28;90910;-63
2022/08/15 02:06:21;;;;;;;8.07;7.38;;;23.00;99.90;;;;;;6231629;28;87919;-63
2022/08/15 02:09:24;;;;;;;7.93;7.22;;;23.00;99.90;;;;;;6225641;28;88436;-63
2022/08/15 02:12:31;;;;;;;9.13;8.23;;;22.90;99.90;;;;;;6230738;28;89009;-63
2022/08/15 02:15:33;;;;;;;8.50;7.70;;;22.90;99.90;;;;;;6231801;28;89017;-63
2022/08/15 02:18:35;;;;;;;8.20;7.50;;;22.90;99.90;;;;;;6230972;28;90026;-63
2022/08/15 02:21:39;;;;;;;8.35;7.65;;;23.00;99.90;;;;;;6228968;28;88196;-63
2022/08/15 02:24:41;;;;;;;8.45;7.65;;;22.90;99.90;;;;;;6229118;28;89100;-63
2022/08/15 02:27:44;;;;;;;8.15;7.45;;;22.90;99.90;;;;;;6230859;28;89069;-63
2022/08/15 02:30:47;;;;;;;8.32;7.50;;;22.90;99.90;;;;;;6230494;28;89231;-64
2022/08/15 02:33:53;;;;;;;8.18;7.40;;;22.90;99.90;;;;;;6231384;28;89430;-64
2022/08/15 02:36:55;;;;;;;8.25;7.45;;;22.90;99.90;;;;;;6230710;28;89123;-63
2022/08/15 02:39:57;;;;;;;7.93;7.22;;;22.90;99.90;;;;;;6219468;28;88501;-64
2022/08/15 02:43:03;;;;;;;8.00;7.30;;;22.90;99.90;;;;;;6228812;28;89184;-64
2022/08/15 02:46:05;;;;;;;8.25;7.55;;;22.90;99.90;;;;;;6230508;28;87949;-63
2022/08/15 02:49:11;;;;;;;9.40;8.50;;;22.90;99.90;;;;;;6229827;28;90056;-63
2022/08/15 02:52:13;;;;;;;8.07;7.38;;;22.90;99.90;;;;;;6230071;28;89023;-66
2022/08/15 02:55:15;;;;;;;8.70;7.90;;;22.90;99.90;;;;;;6230459;28;89129;-66
2022/08/15 02:58:18;;;;;;;8.85;7.97;;;22.90;99.90;;;;;;6228781;28;89098;-66
2022/08/15 03:01:23;;;;;;;10.38;9.27;;;22.90;99.90;;;;;;6230485;28;89079;-66
2022/08/15 03:04:26;;;;;;;9.48;8.57;;;22.90;99.90;;;;;;6231629;28;89090;-65
2022/08/15 03:07:28;;;;;;;9.30;8.30;;;22.90;99.90;;;;;;6230975;28;89167;-66
2022/08/15 03:10:30;;;;;;;8.45;7.75;;;22.80;99.90;;;;;;6230127;28;88266;-66
2022/08/15 03:13:34;;;;;;;9.07;8.27;;;22.90;99.90;;;;;;6228913;28;89162;-65
2022/08/15 03:16:40;;;;;;;9.15;8.25;;;22.80;99.90;;;;;;6230699;28;89090;-65
2022/08/15 03:19:42;;;;;;;8.27;7.57;;;22.80;99.90;;;;;;6229633;28;90145;-65
2022/08/15 03:22:46;;;;;;;7.68;6.97;;;22.80;99.90;;;;;;6230046;28;89120;-65
2022/08/15 03:25:50;;;;;;;8.38;7.57;;;22.80;99.90;;;;;;6228607;28;89432;-65
2022/08/15 03:28:54;;;;;;;8.90;8.02;;;22.80;99.90;;;;;;6221498;28;89098;-65
2022/08/15 03:31:56;;;;;;;8.70;7.88;;;22.80;99.90;;;;;;6229174;28;88862;-66
2022/08/15 03:34:58;;;;;;;9.15;8.35;;;22.80;99.90;;;;;;6229882;28;89051;-65
2022/08/15 03:38:01;;;;;;;8.57;7.65;;;22.80;99.90;;;;;;6229279;28;89536;-65
2022/08/15 03:41:08;;;;;;;8.45;7.75;;;22.80;99.90;;;;;;6230594;28;88330;-65
2022/08/15 03:44:12;;;;;;;9.10;8.30;;;22.70;99.90;;;;;;6230091;28;89083;-65
2022/08/15 03:47:14;;;;;;;8.82;8.05;;;22.80;99.90;;;;;;6230418;28;88875;-66
2022/08/15 03:50:17;;;;;;;8.25;7.55;;;22.80;99.90;;;;;;6217913;28;90086;-66
2022/08/15 03:53:19;;;;;;;9.45;8.55;;;22.80;99.90;;;;;;6234356;28;89430;-65
2022/08/15 03:56:24;;;;;;;9.07;8.15;;;22.80;99.90;;;;;;6235528;28;89548;-66
2022/08/15 03:59:27;;;;;;;8.27;7.57;;;22.80;99.90;;;;;;6235615;28;89048;-66
2022/08/15 04:02:29;;;;;;;9.88;8.93;;;22.70;99.90;;;;;;6223160;28;89067;-65
2022/08/15 04:05:31;;;;;;;9.57;8.57;;;22.70;99.90;;;;;;6235113;28;89288;-65
2022/08/15 04:08:35;;;;;;;8.63;7.78;;;22.70;99.90;;;;;;6221714;28;90314;-65
2022/08/15 04:11:37;;;;;;;8.70;7.80;;;22.70;99.90;;;;;;6245551;28;88339;-66
2022/08/15 04:14:40;;;;;;;8.88;8.07;;;22.70;99.90;;;;;;6236143;28;89096;-66
2022/08/15 04:17:43;;;;;;;8.82;8.13;;;22.70;99.90;;;;;;6237245;28;89451;-65
2022/08/15 04:20:45;;;;;;;8.82;8.02;;;22.70;99.90;;;;;;6233328;27;89824;-66
2022/08/15 04:23:49;;;;;;;9.05;8.25;;;22.70;99.90;;;;;;6232548;28;89253;-65
2022/08/15 04:26:50;;;;;;;8.98;8.15;;;22.70;99.90;;;;;;6220740;28;88727;-65
2022/08/15 04:29:54;;;;;;;9.13;8.32;;;22.70;99.90;;;;;;6233060;28;89479;-65
2022/08/15 04:33:07;;;;;;;9.63;8.70;;;22.70;99.90;;;;;;6234985;28;89457;-66
2022/08/15 04:36:11;;;;;;;9.68;8.73;;;22.70;99.90;;;;;;6232968;28;89466;-65
2022/08/15 04:39:13;;;;;;;9.25;8.38;;;22.70;99.90;;;;;;6231829;28;89124;-65
2022/08/15 04:42:15;;;;;;;9.20;8.23;;;22.70;99.90;;;;;;6232660;28;88244;-65
2022/08/15 04:45:19;;;;;;;11.00;8.70;;;22.70;99.90;;;;;;6235403;28;89169;-65
2022/08/15 04:48:22;;;;;;;8.90;8.00;;;22.70;99.90;;;;;;6232877;28;89084;-65
2022/08/15 04:51:25;;;;;;;9.40;8.57;;;22.70;99.90;;;;;;6222622;28;89897;-65
2022/08/15 04:54:27;;;;;;;9.43;8.63;;;22.70;99.90;;;;;;6233331;28;89175;-65
2022/08/15 04:57:29;;;;;;;9.13;8.32;;;22.70;99.90;;;;;;6232254;28;89052;-65
2022/08/15 05:00:33;;;;;;;9.50;8.60;;;22.80;99.90;;;;;;6231715;28;89150;-65
2022/08/15 05:03:35;;;;;;;9.40;8.50;;;22.70;99.90;;;;;;6233757;28;89402;-65
2022/08/15 05:06:37;;;;;;;10.13;9.10;;;22.80;99.90;;;;;;6232549;28;89087;-66
2022/08/15 05:09:39;;;;;;;11.15;9.02;;;22.80;99.90;;;;;;6226873;28;89114;-66
2022/08/15 05:12:41;;;;;;;8.90;8.10;;;22.80;99.90;;;;;;6233267;28;88504;-65
2022/08/15 05:15:46;;;;;;;9.50;8.48;;;22.80;99.90;;;;;;6233663;28;89133;-66
2022/08/15 05:18:48;;;;;;;9.45;8.40;;;22.90;99.90;;;;;;6235564;28;89084;-66
2022/08/15 05:21:50;;;;;;;9.27;8.48;;;22.90;99.90;;;;;;6232477;28;90347;-65
2022/08/15 05:24:52;;;;;;;9.98;9.07;;;22.90;99.90;;;;;;6231421;28;89106;-66
2022/08/15 05:27:55;;;;;;;10.23;9.32;;;22.90;99.90;;;;;;6232131;28;88282;-66
2022/08/15 05:30:59;;;;;;;10.27;9.32;;;22.90;99.90;;;;;;6232756;28;89182;-66
2022/08/15 05:34:01;;;;;;;10.60;9.60;;;22.90;99.90;;;;;;6231717;28;89071;-66
2022/08/15 05:37:04;;;;;;;10.75;9.25;;;22.90;99.90;;;;;;6231526;28;89092;-65
2022/08/15 05:40:09;;;;;;;10.35;9.35;;;22.90;99.90;;;;;;6232832;28;89250;-66
2022/08/15 05:43:18;;;;;;;10.15;9.20;;;22.90;99.90;;;;;;6233213;28;88741;-66
2022/08/15 05:46:31;;;;;;;10.13;9.23;;;22.90;99.90;;;;;;6220048;28;89157;-65
2022/08/15 05:49:40;;;;;;;9.98;8.98;;;22.90;99.90;;;;;;6231637;28;90241;-65
2022/08/15 05:52:48;;;;;;;10.75;9.75;;;22.90;99.90;;;;;;6232024;28;90135;-65
2022/08/15 05:55:56;;;;;;;10.40;9.38;;;22.90;99.90;;;;;;6232167;28;89084;-66
2022/08/15 05:59:03;;;;;;;10.77;9.70;;;22.90;99.90;;;;;;6232488;28;89329;-66
2022/08/15 06:02:11;;;;;;;11.27;10.20;;;22.90;99.90;;;;;;6231537;28;89072;-66
2022/08/15 06:05:18;;;;;;;11.30;10.30;;;22.90;99.90;;;;;;6230886;28;89087;-65
2022/08/15 06:08:25;;;;;;;10.75;9.75;;;22.90;99.90;;;;;;6229086;28;89066;-66
2022/08/15 06:11:34;;;;;;;10.23;9.32;;;22.80;99.90;;;;;;6229867;28;89246;-66
2022/08/15 06:14:40;;;;;;;10.82;9.80;;;22.90;99.90;;;;;;6229412;28;87300;-66
2022/08/15 06:17:49;;;;;;;10.43;9.25;;;22.80;99.90;;;;;;6228964;28;88151;-65
2022/08/15 06:21:00;;;;;;;10.35;9.45;;;22.80;99.90;;;;;;6228708;28;88818;-66
2022/08/15 06:24:11;;;;;;;10.27;9.38;;;22.90;99.90;;;;;;6229673;28;90027;-66
2022/08/15 06:27:24;;;;;;;9.80;9.00;;;22.90;99.90;;;;;;6229337;28;89103;-66
2022/08/15 06:30:34;;;;;;;10.23;9.30;;;22.90;99.90;;;;;;6228454;28;87978;-66
2022/08/15 06:33:44;;;;;;;9.90;9.00;;;22.90;99.90;;;;;;6231011;28;89067;-66
2022/08/15 06:36:55;;;;;;;9.98;9.07;;;22.90;99.90;;;;;;6228719;28;89189;-65
2022/08/15 06:40:12;;;;;;;9.23;8.43;;;22.90;99.90;;;;;;6230027;28;89027;-66
2022/08/15 06:43:14;;;;;;;9.10;8.25;;;22.90;99.90;;;;;;6230382;28;89270;-66
2022/08/15 06:46:16;;;;;;;9.32;8.43;;;22.90;99.90;;;;;;6229798;28;87278;-66
2022/08/15 06:49:23;;;;;;;9.98;8.38;;;22.90;99.90;;;;;;6229812;28;89150;-66
2022/08/15 06:52:28;;;;;;;9.15;8.25;;;22.90;99.90;;;;;;6230255;28;89111;-66
2022/08/15 06:55:41;;;;;;;8.82;7.93;;;23.00;99.90;;;;;;6227379;28;90120;-65
2022/08/15 06:58:52;;;;;;;9.32;8.32;;;23.00;99.90;;;;;;6229359;28;88017;-66
2022/08/15 07:02:02;;;;;;;9.18;8.30;;;23.00;99.90;;;;;;6226597;28;89265;-66
2022/08/15 07:05:15;;;;;;;8.98;8.10;;;23.00;99.90;;;;;;6227707;28;88080;-66
2022/08/15 07:08:26;;;;;;;8.70;8.00;;;23.00;99.90;;;;;;6226186;28;89064;-66
2022/08/15 07:11:37;;;;;;;8.60;7.90;;;23.00;99.90;;;;;;6227548;28;88027;-66
2022/08/15 07:14:59;;;;;;;8.15;7.45;;;23.00;99.90;;;;;;6226495;28;89563;-65
2022/08/15 07:18:07;;;;;;;7.55;6.85;;;23.10;99.90;;;;;;6229343;28;88340;-65
2022/08/15 07:21:14;;;;;;;7.82;7.20;;;23.00;99.90;;;;;;6230165;28;89556;-66
2022/08/15 07:24:27;;;;;;;7.43;6.72;;;23.00;99.90;;;;;;6227286;28;89067;-67
2022/08/15 07:27:33;;;;;;;7.05;6.35;;;23.00;99.90;;;;;;6228174;28;90013;-66
2022/08/15 07:30:47;;;;;;;7.22;6.53;;;23.00;99.90;;;;;;6228464;28;89039;-66
2022/08/15 07:33:51;;;;;;;7.65;6.43;;;23.10;99.90;;;;;;6227234;28;89155;-66
2022/08/15 07:37:00;;;;;;;6.80;6.10;;;23.00;99.90;;;;;;6229588;28;88962;-65
2022/08/15 07:40:06;;;;;;;6.47;5.85;;;23.10;99.90;;;;;;6229796;28;89462;-66
2022/08/15 07:43:25;;;;;;;6.82;5.68;;;23.00;99.90;;;;;;6219345;28;89054;-66
2022/08/15 07:46:38;;;;;;;6.63;6.03;;;23.00;99.90;;;;;;6219846;28;89456;-66
2022/08/15 07:49:40;;;;;;;6.88;5.50;;;23.10;99.90;;;;;;6209427;28;88372;-65
2022/08/15 07:52:55;;;;;;;5.97;5.50;;;23.00;99.90;;;;;;6241695;28;89176;-65
2022/08/15 07:56:07;;;;;;;5.85;5.28;;;23.00;99.90;;;;;;6229985;28;89195;-65
2022/08/15 07:59:13;;;;;;;5.55;5.05;;;23.00;99.90;;;;;;6228612;28;90077;-65
2022/08/15 08:02:23;;;;;;;6.20;5.43;;;23.00;99.90;;;;;;6229478;28;87978;-65
2022/08/15 08:05:28;;;;;;;5.78;4.93;;;23.00;99.90;;;;;;6222048;28;89426;-65
2022/08/15 08:08:39;;;;;;;5.28;4.60;;;23.10;99.90;;;;;;6226191;28;89186;-65
2022/08/15 08:11:48;;;;;;;5.75;4.93;;;23.10;99.90;;;;;;6223039;28;89349;-65
2022/08/15 08:15:02;;;;;;;5.40;4.90;;;23.00;99.90;;;;;;6226252;28;89125;-66
2022/08/15 08:18:08;;;;;;;5.25;4.85;;;23.00;99.90;;;;;;6229495;28;89121;-65
2022/08/15 08:21:14;;;;;;;5.40;4.90;;;23.00;99.90;;;;;;6232439;28;88591;-66
2022/08/15 08:24:31;;;;;;;5.97;5.00;;;23.10;99.90;;;;;;6219066;28;89111;-65
2022/08/15 08:27:53;;;;;;;5.68;4.97;;;23.00;99.90;;;;;;6215269;28;89393;-65
2022/08/15 08:31:03;;;;;;;5.45;4.90;;;23.10;99.90;;;;;;6227515;28;91079;-65
2022/08/15 08:34:13;;;;;;;5.03;4.60;;;23.10;99.90;;;;;;6223461;28;88865;-65
2022/08/15 08:37:26;;;;;;;5.63;4.97;;;23.10;99.90;;;;;;6230893;28;89054;-65
2022/08/15 08:44:09;;;;;;;4.80;4.35;;;23.10;99.90;;;;;;6225950;28;87054;-66
2022/08/15 08:47:28;;;;;;;5.50;5.00;;;23.00;99.90;;;;;;6232773;28;89279;-65
2022/08/15 08:50:39;;;;;;;4.90;4.40;;;23.10;99.90;;;;;;6230568;28;87796;-65
2022/08/15 08:53:49;;;;;;;5.75;4.50;;;23.10;99.90;;;;;;6232854;28;88567;-65
2022/08/15 08:56:56;;;;;;;4.97;4.47;;;23.10;99.90;;;;;;6233605;28;89098;-65
2022/08/15 09:00:05;;;;;;;4.90;4.50;;;23.10;99.90;;;;;;6231518;28;89125;-65
2022/08/15 09:03:14;;;;;;;5.00;4.50;;;23.00;99.90;;;;;;6231581;28;90002;-65
2022/08/15 09:06:21;;;;;;;5.15;4.47;;;23.10;99.90;;;;;;6232072;28;89188;-65
2022/08/15 09:09:31;;;;;;;4.53;4.13;;;23.10;99.90;;;;;;6233086;28;89483;-65
2022/08/15 09:16:02;;;;;;;4.80;4.40;;;23.10;99.90;;;;;;6226329;28;87778;-66
2022/08/15 09:19:13;;;;;;;5.03;4.53;;;23.10;99.90;;;;;;6241418;27;88991;-66
2022/08/15 09:22:15;;;;;;;4.70;4.25;;;23.10;99.90;;;;;;6233335;28;89516;-66
2022/08/15 09:25:18;;;;;;;20.63;5.90;;;23.10;99.90;;;;;;6232723;28;88746;-66
2022/08/15 09:28:29;;;;;;;6.72;4.72;;;23.10;99.90;;;;;;6244135;28;89074;-65
2022/08/15 09:31:34;;;;;;;5.18;4.78;;;23.10;99.90;;;;;;6231568;28;89130;-67
2022/08/15 09:35:16;;;;;;;4.68;4.28;;;23.10;99.90;;;;;;6231009;28;89977;-66
2022/08/15 09:38:43;;;;;;;4.85;4.43;;;23.10;99.90;;;;;;6231476;28;89399;-66
2022/08/15 09:42:02;;;;;;;4.65;4.25;;;23.10;99.90;;;;;;6222965;28;89030;-67
2022/08/15 09:45:34;;;;;;;5.53;4.65;;;23.10;99.90;;;;;;6222571;28;89092;-66
2022/08/15 09:48:54;;;;;;;5.50;4.20;;;23.10;99.90;;;;;;6216290;28;88890;-66
2022/08/15 09:52:11;;;;;;;6.22;4.50;;;23.10;99.90;;;;;;6223999;28;89142;-66
2022/08/15 09:55:21;;;;;;;4.57;4.18;;;23.10;99.90;;;;;;6231489;28;89126;-66
2022/08/15 09:58:25;;;;;;;5.40;4.43;;;23.10;99.90;;;;;;6231392;28;88310;-66
2022/08/15 10:01:30;;;;;;;5.70;4.60;;;23.10;99.90;;;;;;6230211;28;89420;-66
2022/08/15 10:05:01;;;;;;;4.85;4.15;;;23.10;99.90;;;;;;6231165;28;89017;-66
2022/08/15 10:08:07;;;;;;;5.90;4.53;;;23.10;99.90;;;;;;6226259;28;90066;-66
2022/08/15 10:11:12;;;;;;;4.65;4.25;;;23.10;99.90;;;;;;6231421;28;89191;-66
2022/08/15 10:14:26;;;;;;;4.55;4.15;;;23.10;99.90;;;;;;6220454;28;89556;-66
2022/08/15 10:17:40;;;;;;;5.38;4.53;;;23.10;99.90;;;;;;6217748;28;88805;-66
2022/08/15 10:21:02;;;;;;;4.45;4.13;;;23.10;99.90;;;;;;6222587;28;89010;-64
2022/08/15 10:24:23;;;;;;;4.68;4.28;;;23.10;99.90;;;;;;6231252;28;89034;-64
2022/08/15 10:27:26;;;;;;;5.80;4.30;;;23.20;99.90;;;;;;6231312;28;89039;-64
2022/08/15 10:30:30;;;;;;;5.47;4.40;;;23.10;99.90;;;;;;6232722;28;88931;-64
2022/08/15 10:33:41;;;;;;;4.75;4.30;;;23.10;99.90;;;;;;6240796;28;89005;-64
2022/08/15 10:37:05;;;;;;;4.90;4.50;;;23.10;99.90;;;;;;6221879;28;89388;-64
2022/08/15 10:40:43;;;;;;;4.95;4.22;;;23.10;99.90;;;;;;6222127;28;90362;-64
2022/08/15 10:44:02;;;;;;;4.60;4.20;;;23.10;99.90;;;;;;6234927;28;89007;-64
2022/08/15 10:47:26;;;;;;;4.43;4.03;;;23.10;99.90;;;;;;6230680;28;89332;-64
2022/08/15 10:50:42;;;;;;;4.90;4.10;;;23.10;99.90;;;;;;6221295;28;88759;-64
2022/08/15 10:53:50;;;;;;;5.07;4.05;;;23.10;99.90;;;;;;6230040;28;89109;-64
2022/08/15 10:56:56;;;;;;;4.40;4.00;;;23.10;99.90;;;;;;6231054;28;89162;-64
2022/08/15 10:59:58;;;;;;;4.43;4.03;;;23.10;99.90;;;;;;6229658;28;89386;-64
2022/08/15 11:03:03;;;;;;;5.57;4.40;;;23.10;99.90;;;;;;6231415;28;88233;-64
2022/08/15 11:06:08;;;;;;;4.20;3.85;;;23.20;99.90;;;;;;6230529;28;89119;-64
2022/08/15 11:09:15;;;;;;;4.78;4.28;;;23.20;99.90;;;;;;6230485;28;88868;-64
2022/08/15 11:12:20;;;;;;;5.00;4.43;;;23.20;99.90;;;;;;6229182;28;89998;-64
2022/08/15 11:15:25;;;;;;;4.35;3.95;;;23.20;99.90;;;;;;6230885;28;89099;-64
2022/08/15 11:18:33;;;;;;;4.20;3.90;;;23.20;99.90;;;;;;6239589;28;89079;-64
2022/08/15 11:21:39;;;;;;;4.53;3.78;;;23.20;99.90;;;;;;6229306;28;91733;-64
2022/08/15 11:24:42;;;;;;;4.10;3.80;;;23.20;99.90;;;;;;6229963;28;89275;-64
2022/08/15 11:27:57;;;;;;;4.38;3.97;;;23.10;99.90;;;;;;6217611;28;89444;-64
2022/08/15 11:31:04;;;;;;;4.18;3.78;;;23.20;99.90;;;;;;6228868;28;89259;-64
2022/08/15 11:34:19;;;;;;;4.30;3.90;;;23.20;99.90;;;;;;6230416;28;87289;-64
2022/08/15 11:37:24;;;;;;;4.25;3.92;;;23.20;99.90;;;;;;6230334;28;89438;-64
2022/08/15 11:40:31;;;;;;;4.93;3.90;;;23.20;99.90;;;;;;6229195;28;89250;-64
2022/08/15 11:43:35;;;;;;;4.60;4.07;;;23.20;99.90;;;;;;6227698;28;90312;-65
2022/08/15 11:46:38;;;;;;;4.35;3.85;;;23.10;99.90;;;;;;6230111;28;87972;-64
2022/08/15 11:49:46;;;;;;;4.03;3.72;;;23.20;99.90;;;;;;6230812;28;88972;-64
2022/08/15 11:52:51;;;;;;;3.80;3.50;;;23.20;99.90;;;;;;6229553;28;89065;-64
2022/08/15 11:55:53;;;;;;;4.28;3.88;;;23.20;99.90;;;;;;6235055;28;87958;-64
2022/08/15 11:58:56;;;;;;;3.80;3.50;;;23.20;99.90;;;;;;6232095;28;89016;-64
2022/08/15 12:02:12;;;;;;;4.13;3.80;;;23.20;99.90;;;;;;6228703;28;89441;-64
2022/08/15 12:05:18;;;;;;;4.72;4.00;;;23.20;99.90;;;;;;6230864;28;90471;-64
2022/08/15 12:08:24;;;;;;;4.35;4.05;;;23.20;99.90;;;;;;6230679;28;88881;-64
2022/08/15 12:11:26;;;;;;;4.00;3.67;;;23.20;99.90;;;;;;6237392;28;88994;-65
2022/08/15 12:14:30;;;;;;;4.22;3.83;;;23.20;99.90;;;;;;6223614;28;90051;-64
2022/08/15 12:17:33;;;;;;;4.18;3.85;;;23.20;99.90;;;;;;6238029;28;89088;-64
2022/08/15 12:20:41;;;;;;;4.20;3.80;;;23.20;99.90;;;;;;6222386;28;88994;-64
2022/08/15 12:23:51;;;;;;;4.40;4.00;;;23.20;99.90;;;;;;6223535;28;89143;-65
2022/08/15 12:26:55;;;;;;;4.32;3.92;;;23.20;99.90;;;;;;6232918;28;87965;-65
2022/08/15 12:29:58;;;;;;;4.20;3.83;;;23.20;99.90;;;;;;6221844;28;87943;-65
2022/08/15 12:33:00;;;;;;;4.03;3.63;;;23.20;99.90;;;;;;6252742;28;89080;-64
2022/08/15 12:36:03;;;;;;;4.25;3.40;;;23.30;99.90;;;;;;6235037;28;88143;-64
2022/08/15 12:39:05;;;;;;;4.47;4.10;;;23.30;99.90;;;;;;6231869;28;88996;-65
2022/08/15 12:42:08;;;;;;;4.22;3.83;;;23.30;99.90;;;;;;6231997;28;89365;-65
2022/08/15 12:45:15;;;;;;;4.35;3.95;;;23.30;99.90;;;;;;6231264;28;90369;-65
2022/08/15 12:48:22;;;;;;;4.60;4.13;;;23.30;99.90;;;;;;6229912;28;88965;-65
2022/08/15 12:51:25;;;;;;;4.72;3.70;;;23.30;99.90;;;;;;6231830;28;89154;-65
2022/08/15 12:54:27;;;;;;;4.15;3.85;;;23.40;99.90;;;;;;6230603;28;90591;-65
2022/08/15 12:57:30;;;;;;;3.75;3.45;;;23.40;99.90;;;;;;6230343;28;89079;-64
2022/08/15 13:00:34;;;;;;;4.18;3.88;;;23.30;99.90;;;;;;6221509;28;89290;-64
2022/08/15 13:03:40;;;;;;;3.80;3.50;;;23.40;99.90;;;;;;6224671;28;89037;-65
2022/08/15 13:06:48;;;;;;;4.25;3.85;;;23.40;99.90;;;;;;6230909;28;87244;-65
2022/08/15 13:09:50;;;;;;;3.95;3.65;;;23.40;99.90;;;;;;6239553;28;89058;-64
2022/08/15 13:12:52;;;;;;;4.72;4.10;;;23.40;99.90;;;;;;6228237;28;89510;-65
2022/08/15 13:15:55;;;;;;;4.13;3.72;;;23.30;99.90;;;;;;6241521;28;90822;-64
2022/08/15 13:18:57;;;;;;;4.53;3.80;;;23.40;99.90;;;;;;6224027;28;89271;-65
2022/08/15 13:25:19;;;;;;;4.43;4.03;;;23.40;99.90;;;;;;6227990;28;87306;-65
2022/08/15 13:28:22;;;;;;;4.50;4.10;;;23.40;99.90;;;;;;6228793;28;89064;-65
2022/08/15 13:31:25;;;;;;;3.95;3.60;;;23.50;99.90;;;;;;6229382;28;89076;-66
2022/08/15 13:34:29;;;;;;;4.32;3.92;;;23.40;99.90;;;;;;6229473;28;88976;-65
2022/08/15 13:37:31;;;;;;;4.00;3.70;;;23.40;99.90;;;;;;6236530;28;88099;-65
2022/08/15 13:40:33;;;;;;;4.10;3.70;;;23.50;99.90;;;;;;6225510;28;88968;-65
2022/08/15 13:43:36;;;;;;;4.05;3.75;;;23.40;99.90;;;;;;6236703;28;89072;-65
2022/08/15 13:46:42;;;;;;;3.75;3.45;;;23.40;99.90;;;;;;6231188;28;89966;-65
2022/08/15 13:49:44;;;;;;;3.75;3.45;;;23.40;99.90;;;;;;6230712;28;89165;-65
2022/08/15 13:52:47;;;;;;;4.18;3.78;;;23.40;99.90;;;;;;6232509;28;88994;-65
2022/08/15 13:55:49;;;;;;;5.32;3.97;;;23.40;99.90;;;;;;6231537;28;88970;-65
2022/08/15 13:58:52;;;;;;;4.72;4.32;;;23.50;99.90;;;;;;6232364;28;89296;-65
2022/08/15 14:01:55;;;;;;;4.03;3.70;;;23.50;99.90;;;;;;6231676;28;88851;-65
2022/08/15 14:05:01;;;;;;;3.85;3.50;;;23.50;99.90;;;;;;6231557;28;89241;-65
2022/08/15 14:08:03;;;;;;;3.60;3.28;;;23.50;99.90;;;;;;6232104;28;88335;-66
2022/08/15 14:11:05;;;;;;;4.97;4.00;;;23.50;99.90;;;;;;6235967;28;89035;-65
2022/08/15 14:14:07;;;;;;;4.78;3.90;;;23.50;99.90;;;;;;6239809;28;89038;-65
2022/08/15 14:17:11;;;;;;;3.90;3.60;;;23.50;99.90;;;;;;6231332;28;90539;-65
2022/08/15 14:20:16;;;;;;;7.75;3.78;;;23.50;99.90;;;;;;6228715;28;89372;-65
2022/08/15 14:23:19;;;;;;;3.90;3.50;;;23.60;99.90;;;;;;6232876;28;89030;-66
2022/08/15 14:26:24;;;;;;;4.70;3.30;;;23.50;99.90;;;;;;6235176;28;89101;-65
2022/08/15 14:29:29;;;;;;;3.75;3.45;;;23.50;99.90;;;;;;6228060;28;89304;-66
2022/08/15 14:32:33;;;;;;;4.55;3.38;;;23.60;99.90;;;;;;6227930;28;88914;-66
2022/08/15 14:35:37;;;;;;;3.97;3.65;;;23.60;99.90;;;;;;6226565;28;89025;-65
2022/08/15 14:38:39;;;;;;;3.97;3.58;;;23.50;99.90;;;;;;6225617;28;89007;-66
2022/08/15 14:41:42;;;;;;;3.85;3.42;;;23.60;99.90;;;;;;6226551;28;89087;-66
2022/08/15 14:44:45;;;;;;;4.45;3.72;;;23.60;99.90;;;;;;6226691;28;89098;-66
2022/08/15 14:47:50;;;;;;;4.40;3.95;;;23.60;99.90;;;;;;6224009;28;90323;-66
2022/08/15 14:50:54;;;;;;;4.10;3.70;;;23.60;99.90;;;;;;6223644;28;89126;-65
2022/08/15 14:53:56;;;;;;;3.75;3.45;;;23.60;99.90;;;;;;6223867;28;89114;-66
2022/08/15 14:56:58;;;;;;;4.00;3.70;;;23.60;99.90;;;;;;6226319;28;89058;-65
2022/08/15 15:00:04;;;;;;;4.10;3.70;;;23.60;99.90;;;;;;6226566;28;88563;-65
2022/08/15 15:03:07;;;;;;;4.20;3.80;;;23.60;99.90;;;;;;6227557;28;89133;-65
2022/08/15 15:06:09;;;;;;;4.78;4.03;;;23.60;99.90;;;;;;6227153;28;89247;-65
2022/08/15 15:09:12;;;;;;;4.57;4.00;;;23.60;99.90;;;;;;6228240;28;88644;-66
2022/08/15 15:12:14;;;;;;;4.25;3.85;;;23.60;99.90;;;;;;6226568;28;89249;-66
2022/08/15 15:15:16;;;;;;;4.13;3.72;;;23.60;99.90;;;;;;6228018;28;89066;-67
2022/08/15 15:18:24;;;;;;;4.43;4.03;;;23.60;99.90;;;;;;6227799;28;89977;-66
2022/08/15 15:21:27;;;;;;;3.90;3.60;;;23.60;99.90;;;;;;6238257;28;89149;-66
2022/08/15 15:24:29;;;;;;;3.97;3.67;;;23.60;99.90;;;;;;6228148;28;89001;-66
2022/08/15 15:27:31;;;;;;;3.70;3.45;;;23.60;99.90;;;;;;6226322;28;89070;-66
2022/08/15 15:30:33;;;;;;;4.10;3.70;;;23.60;99.90;;;;;;6226421;28;89057;-66
2022/08/15 15:33:37;;;;;;;4.30;3.90;;;23.60;99.90;;;;;;6224764;28;88283;-66
2022/08/15 15:36:42;;;;;;;4.68;4.00;;;23.60;99.90;;;;;;6217678;28;89252;-65
2022/08/15 15:39:44;;;;;;;4.45;3.95;;;23.60;99.90;;;;;;6222406;28;88373;-64
2022/08/15 15:42:46;;;;;;;5.30;3.88;;;23.60;99.90;;;;;;6230097;28;89075;-64
2022/08/15 15:45:48;;;;;;;3.85;3.55;;;23.60;99.90;;;;;;6230513;28;88837;-64
2022/08/15 15:48:53;;;;;;;4.95;3.83;;;23.70;99.90;;;;;;6232923;28;89909;-65
2022/08/15 15:51:55;;;;;;;4.20;3.80;;;23.60;99.90;;;;;;6234092;28;89421;-64
2022/08/15 15:54:58;;;;;;;4.47;3.88;;;23.70;99.90;;;;;;6238319;28;89048;-65
2022/08/15 15:58:00;;;;;;;4.97;4.30;;;23.70;99.90;;;;;;6236677;28;88229;-66
2022/08/15 16:01:04;;;;;;;4.40;4.00;;;23.70;99.90;;;;;;6237738;28;89709;-65
2022/08/15 16:04:08;;;;;;;5.63;4.28;;;23.70;99.90;;;;;;6236783;28;89073;-65
2022/08/15 16:07:10;;;;;;;5.07;3.92;;;23.70;99.90;;;;;;6226655;28;89015;-65
2022/08/15 16:10:19;;;;;;;4.75;3.72;;;23.70;99.90;;;;;;6238261;28;88384;-65
2022/08/15 16:13:26;;;;;;;4.57;4.10;;;23.70;99.90;;;;;;6238230;28;89043;-66
2022/08/15 16:16:37;;;;;;;4.18;3.78;;;23.70;99.90;;;;;;6236396;28;87953;-66
2022/08/15 16:19:45;;;;;;;3.97;3.67;;;23.70;99.90;;;;;;6224326;28;90084;-66